createdAt,value
2018-08-16T00:00:28.680Z,24.60
2018-08-16T00:01:34.505Z,24.60
2018-08-16T00:02:39.475Z,24.60
2018-08-16T00:03:44.362Z,24.60
2018-08-16T00:04:49.219Z,24.60
2018-08-16T00:05:54.396Z,24.60
2018-08-16T00:06:59.172Z,24.60
2018-08-16T00:08:03.869Z,24.70
2018-08-16T00:09:09.573Z,24.60
2018-08-16T00:10:14.562Z,24.60
2018-08-16T00:11:20.114Z,24.60
2018-08-16T00:12:25.089Z,24.60
2018-08-16T00:13:29.922Z,24.60
2018-08-16T00:14:34.652Z,24.60
2018-08-16T00:15:39.490Z,24.60
2018-08-16T00:16:44.419Z,24.60
2018-08-16T00:17:49.347Z,24.60
2018-08-16T00:18:54.290Z,24.60
2018-08-16T00:19:59.117Z,24.60
2018-08-16T00:21:04.087Z,24.60
2018-08-16T00:22:09.719Z,24.60
2018-08-16T00:23:14.632Z,24.60
2018-08-16T00:24:19.565Z,24.60
2018-08-16T00:25:24.518Z,24.60
2018-08-16T00:26:29.328Z,24.60
2018-08-16T00:27:34.079Z,24.60
2018-08-16T00:28:38.834Z,24.60
2018-08-16T00:29:43.690Z,24.60
2018-08-16T00:30:49.336Z,24.60
2018-08-16T00:31:54.277Z,24.60
2018-08-16T00:32:59.971Z,24.60
2018-08-16T00:34:05.099Z,24.60
2018-08-16T00:35:09.844Z,24.60
2018-08-16T00:36:14.709Z,24.60
2018-08-16T00:37:19.589Z,24.60
2018-08-16T00:38:24.437Z,24.60
2018-08-16T00:39:30.124Z,24.60
2018-08-16T00:41:51.521Z,24.60
2018-08-16T00:42:57.029Z,24.60
2018-08-16T00:44:01.895Z,24.60
2018-08-16T00:45:07.356Z,24.60
2018-08-16T00:46:12.358Z,24.60
2018-08-16T00:47:17.295Z,24.60
2018-08-16T00:48:22.954Z,24.60
2018-08-16T00:49:28.124Z,24.60
2018-08-16T00:50:33.207Z,24.60
2018-08-16T00:51:38.668Z,24.60
2018-08-16T00:52:43.665Z,24.60
2018-08-16T00:53:48.629Z,24.60
2018-08-16T00:54:54.079Z,24.60
2018-08-16T00:55:58.947Z,24.60
2018-08-16T00:57:03.818Z,24.60
2018-08-16T00:58:08.644Z,24.60
2018-08-16T00:59:13.490Z,24.60
2018-08-16T01:00:18.397Z,24.60
2018-08-16T01:01:23.376Z,24.60
2018-08-16T01:02:28.362Z,24.60
2018-08-16T01:03:33.970Z,24.60
2018-08-16T01:04:39.511Z,24.60
2018-08-16T01:05:44.365Z,24.60
2018-08-16T01:06:49.297Z,24.60
2018-08-16T01:07:54.126Z,24.60
2018-08-16T01:08:58.845Z,24.60
2018-08-16T01:10:03.777Z,24.60
2018-08-16T01:11:08.632Z,24.60
2018-08-16T01:12:13.393Z,24.60
2018-08-16T01:13:18.877Z,24.60
2018-08-16T01:14:23.750Z,24.60
2018-08-16T01:15:28.648Z,24.60
2018-08-16T01:16:33.625Z,24.60
2018-08-16T01:17:38.559Z,24.60
2018-08-16T01:18:43.432Z,24.60
2018-08-16T01:19:48.299Z,24.60
2018-08-16T01:20:53.261Z,24.60
2018-08-16T01:21:58.109Z,24.60
2018-08-16T01:23:03.019Z,24.60
2018-08-16T01:24:08.003Z,24.60
2018-08-16T01:25:13.530Z,24.60
2018-08-16T01:26:19.092Z,24.60
2018-08-16T01:27:23.980Z,24.60
2018-08-16T01:28:28.813Z,24.60
2018-08-16T01:29:34.377Z,24.60
2018-08-16T01:30:39.217Z,24.60
2018-08-16T01:31:44.052Z,24.60
2018-08-16T01:32:48.861Z,24.60
2018-08-16T01:33:53.734Z,24.60
2018-08-16T01:34:58.700Z,24.60
2018-08-16T01:36:03.694Z,24.60
2018-08-16T01:37:08.618Z,24.60
2018-08-16T01:38:14.234Z,24.60
2018-08-16T01:39:19.174Z,24.60
2018-08-16T01:40:24.837Z,24.60
2018-08-16T01:41:29.821Z,24.60
2018-08-16T01:42:34.611Z,24.60
2018-08-16T01:43:39.434Z,24.60
2018-08-16T01:44:44.432Z,24.60
2018-08-16T01:45:49.203Z,24.60
2018-08-16T01:46:54.015Z,24.60
2018-08-16T01:47:58.865Z,24.60
2018-08-16T01:49:03.832Z,24.60
2018-08-16T01:50:08.661Z,24.60
2018-08-16T01:51:13.901Z,24.60
2018-08-16T01:52:19.370Z,24.60
2018-08-16T01:53:24.346Z,24.60
2018-08-16T01:54:29.206Z,24.60
2018-08-16T01:55:34.117Z,24.60
2018-08-16T01:56:39.090Z,24.60
2018-08-16T01:57:44.064Z,24.60
2018-08-16T01:58:48.924Z,24.60
2018-08-16T01:59:53.846Z,24.60
2018-08-16T02:00:59.262Z,24.60
2018-08-16T02:02:04.836Z,24.60
2018-08-16T02:03:10.493Z,24.60
2018-08-16T02:04:15.988Z,24.60
2018-08-16T02:05:21.083Z,24.60
2018-08-16T02:06:26.071Z,24.60
2018-08-16T02:07:31.233Z,24.60
2018-08-16T02:08:36.120Z,24.60
2018-08-16T02:09:41.057Z,24.60
2018-08-16T02:10:45.965Z,24.60
2018-08-16T02:11:51.044Z,24.60
2018-08-16T02:12:56.031Z,24.60
2018-08-16T02:14:01.542Z,24.60
2018-08-16T02:15:07.157Z,24.60
2018-08-16T02:16:12.278Z,24.60
2018-08-16T02:17:17.346Z,24.60
2018-08-16T02:18:22.861Z,24.60
2018-08-16T02:19:27.797Z,24.60
2018-08-16T02:20:32.870Z,24.60
2018-08-16T02:21:38.406Z,24.60
2018-08-16T02:22:43.365Z,24.60
2018-08-16T02:23:48.926Z,24.60
2018-08-16T02:24:54.027Z,24.60
2018-08-16T02:25:59.395Z,24.60
2018-08-16T02:27:05.145Z,24.60
2018-08-16T02:28:10.027Z,24.60
2018-08-16T02:29:15.080Z,24.60
2018-08-16T02:30:20.159Z,24.60
2018-08-16T02:31:25.111Z,24.60
2018-08-16T02:32:30.047Z,24.60
2018-08-16T02:33:35.079Z,24.60
2018-08-16T02:34:40.626Z,24.60
2018-08-16T02:35:46.280Z,24.60
2018-08-16T02:36:51.203Z,24.60
2018-08-16T02:37:56.199Z,24.60
2018-08-16T02:39:01.080Z,24.60
2018-08-16T02:40:06.163Z,24.60
2018-08-16T02:41:11.033Z,24.60
2018-08-16T02:42:15.870Z,24.60
2018-08-16T02:43:21.597Z,24.60
2018-08-16T02:44:26.658Z,24.60
2018-08-16T02:45:31.778Z,24.60
2018-08-16T02:46:36.570Z,24.60
2018-08-16T02:47:41.504Z,24.60
2018-08-16T02:48:46.500Z,24.60
2018-08-16T02:49:51.497Z,24.50
2018-08-16T02:50:57.160Z,24.60
2018-08-16T02:52:02.136Z,24.60
2018-08-16T02:53:07.082Z,24.60
2018-08-16T02:54:12.049Z,24.60
2018-08-16T02:55:17.169Z,24.50
2018-08-16T02:56:22.205Z,24.60
2018-08-16T02:57:27.146Z,24.60
2018-08-16T02:58:32.186Z,24.50
2018-08-16T02:59:37.904Z,24.60
2018-08-16T03:00:43.527Z,24.60
2018-08-16T03:01:49.194Z,24.60
2018-08-16T03:02:54.031Z,24.60
2018-08-16T03:03:59.118Z,24.50
2018-08-16T03:05:04.156Z,24.60
2018-08-16T03:06:09.293Z,24.50
2018-08-16T03:07:14.064Z,24.50
2018-08-16T03:08:19.041Z,24.50
2018-08-16T03:09:24.031Z,24.50
2018-08-16T03:10:29.099Z,24.60
2018-08-16T03:11:34.627Z,24.50
2018-08-16T03:12:40.214Z,24.50
2018-08-16T03:13:45.146Z,24.50
2018-08-16T03:14:50.132Z,24.50
2018-08-16T03:15:55.102Z,24.50
2018-08-16T03:17:00.767Z,24.50
2018-08-16T03:18:06.400Z,24.50
2018-08-16T03:19:12.036Z,24.50
2018-08-16T03:20:16.962Z,24.50
2018-08-16T03:21:21.910Z,24.50
2018-08-16T03:22:26.787Z,24.50
2018-08-16T03:23:32.438Z,24.50
2018-08-16T03:24:37.242Z,24.50
2018-08-16T03:25:42.322Z,24.50
2018-08-16T03:26:47.308Z,24.50
2018-08-16T03:27:52.247Z,24.50
2018-08-16T03:28:57.723Z,24.50
2018-08-16T03:30:02.612Z,24.50
2018-08-16T03:31:07.568Z,24.50
2018-08-16T03:32:12.507Z,24.50
2018-08-16T03:33:17.488Z,24.50
2018-08-16T03:34:22.507Z,24.50
2018-08-16T03:35:27.573Z,24.50
2018-08-16T03:36:32.502Z,24.50
2018-08-16T03:37:37.561Z,24.50
2018-08-16T03:38:42.514Z,24.50
2018-08-16T03:39:47.450Z,24.50
2018-08-16T03:40:53.432Z,24.50
2018-08-16T03:41:58.868Z,24.60
2018-08-16T03:43:03.922Z,24.50
2018-08-16T03:44:08.961Z,24.50
2018-08-16T03:45:14.036Z,24.50
2018-08-16T03:46:19.630Z,24.50
2018-08-16T03:47:24.451Z,24.50
2018-08-16T03:48:29.429Z,24.50
2018-08-16T03:49:34.342Z,24.50
2018-08-16T03:50:39.336Z,24.50
2018-08-16T03:51:44.226Z,24.50
2018-08-16T03:52:49.109Z,24.50
2018-08-16T03:53:53.908Z,24.50
2018-08-16T03:54:59.381Z,24.50
2018-08-16T03:56:04.374Z,24.50
2018-08-16T03:57:09.365Z,24.50
2018-08-16T03:58:14.111Z,24.50
2018-08-16T03:59:18.842Z,24.50
2018-08-16T04:00:23.890Z,24.50
2018-08-16T04:01:28.898Z,24.50
2018-08-16T04:02:33.839Z,24.50
2018-08-16T04:03:38.862Z,24.50
2018-08-16T04:04:43.833Z,24.50
2018-08-16T04:05:48.579Z,24.50
2018-08-16T04:06:53.439Z,24.50
2018-08-16T04:07:59.010Z,24.50
2018-08-16T04:09:03.878Z,24.50
2018-08-16T04:10:08.647Z,24.50
2018-08-16T04:11:14.195Z,24.50
2018-08-16T04:12:19.012Z,24.50
2018-08-16T04:13:24.025Z,24.50
2018-08-16T04:14:28.711Z,24.50
2018-08-16T04:15:34.320Z,24.50
2018-08-16T04:16:39.243Z,24.50
2018-08-16T04:17:44.140Z,24.50
2018-08-16T04:18:49.697Z,24.50
2018-08-16T04:19:54.596Z,24.50
2018-08-16T04:20:59.769Z,24.50
2018-08-16T04:22:04.677Z,24.50
2018-08-16T04:23:09.649Z,24.50
2018-08-16T04:24:14.536Z,24.50
2018-08-16T04:25:19.450Z,24.50
2018-08-16T04:26:24.644Z,24.50
2018-08-16T04:27:29.526Z,24.50
2018-08-16T04:28:34.411Z,24.50
2018-08-16T04:29:39.976Z,24.50
2018-08-16T04:30:44.794Z,24.50
2018-08-16T04:31:49.710Z,24.50
2018-08-16T04:32:54.899Z,24.50
2018-08-16T04:33:59.857Z,24.50
2018-08-16T04:35:04.818Z,24.50
2018-08-16T04:36:09.753Z,24.50
2018-08-16T04:37:14.576Z,24.50
2018-08-16T04:38:20.445Z,24.50
2018-08-16T04:39:25.392Z,24.50
2018-08-16T04:40:30.940Z,24.50
2018-08-16T04:41:35.954Z,24.50
2018-08-16T04:42:41.452Z,24.50
2018-08-16T04:43:47.113Z,24.50
2018-08-16T04:44:52.059Z,24.50
2018-08-16T04:45:56.902Z,24.50
2018-08-16T04:47:01.679Z,24.50
2018-08-16T04:48:06.439Z,24.50
2018-08-16T04:49:11.389Z,24.50
2018-08-16T04:50:16.402Z,24.50
2018-08-16T04:51:21.845Z,24.50
2018-08-16T04:52:26.648Z,24.50
2018-08-16T04:53:31.594Z,24.50
2018-08-16T04:54:36.410Z,24.50
2018-08-16T04:55:42.020Z,24.50
2018-08-16T04:56:46.966Z,24.50
2018-08-16T04:57:51.790Z,24.50
2018-08-16T04:58:56.640Z,24.50
2018-08-16T05:00:01.463Z,24.50
2018-08-16T05:01:06.546Z,24.50
2018-08-16T05:02:12.109Z,24.50
2018-08-16T05:03:16.939Z,24.50
2018-08-16T05:04:22.468Z,24.50
2018-08-16T05:05:27.407Z,24.50
2018-08-16T05:06:32.311Z,24.50
2018-08-16T05:07:37.243Z,24.50
2018-08-16T05:08:42.054Z,24.50
2018-08-16T05:09:47.132Z,24.50
2018-08-16T05:10:52.159Z,24.50
2018-08-16T05:11:57.076Z,24.50
2018-08-16T05:13:01.972Z,24.50
2018-08-16T05:14:07.514Z,24.50
2018-08-16T05:15:12.522Z,24.50
2018-08-16T05:16:18.092Z,24.50
2018-08-16T05:17:22.882Z,24.50
2018-08-16T05:18:27.762Z,24.50
2018-08-16T05:19:32.673Z,24.50
2018-08-16T05:20:38.182Z,24.50
2018-08-16T05:21:42.960Z,24.50
2018-08-16T05:22:47.905Z,24.50
2018-08-16T05:23:53.385Z,24.50
2018-08-16T05:24:58.422Z,24.50
2018-08-16T05:26:03.315Z,24.50
2018-08-16T05:27:08.254Z,24.50
2018-08-16T05:28:13.515Z,24.50
2018-08-16T05:29:19.144Z,24.50
2018-08-16T05:30:23.956Z,24.50
2018-08-16T05:31:28.942Z,24.50
2018-08-16T05:32:33.779Z,24.50
2018-08-16T05:33:38.798Z,24.50
2018-08-16T05:34:44.298Z,24.50
2018-08-16T05:35:49.161Z,24.50
2018-08-16T05:36:54.723Z,24.50
2018-08-16T05:37:59.796Z,24.50
2018-08-16T05:39:04.612Z,24.50
2018-08-16T05:40:09.637Z,24.50
2018-08-16T05:41:14.544Z,24.50
2018-08-16T05:42:19.553Z,24.50
2018-08-16T05:43:25.089Z,24.50
2018-08-16T05:44:29.946Z,24.50
2018-08-16T05:45:34.867Z,24.50
2018-08-16T05:46:39.776Z,24.50
2018-08-16T05:47:44.813Z,24.50
2018-08-16T05:48:49.854Z,24.50
2018-08-16T05:49:54.805Z,24.50
2018-08-16T05:50:59.676Z,24.50
2018-08-16T05:52:05.319Z,24.50
2018-08-16T05:53:10.185Z,24.50
2018-08-16T05:54:15.236Z,24.40
2018-08-16T05:55:20.321Z,24.50
2018-08-16T05:56:25.433Z,24.50
2018-08-16T05:57:30.415Z,24.50
2018-08-16T05:58:36.146Z,24.50
2018-08-16T05:59:41.115Z,24.50
2018-08-16T06:00:45.996Z,24.50
2018-08-16T06:01:50.941Z,24.50
2018-08-16T06:02:55.897Z,24.50
2018-08-16T06:04:01.426Z,24.50
2018-08-16T06:05:06.442Z,24.50
2018-08-16T06:06:11.362Z,24.50
2018-08-16T06:07:16.837Z,24.50
2018-08-16T06:08:21.740Z,24.50
2018-08-16T06:09:27.270Z,24.50
2018-08-16T06:10:32.160Z,24.50
2018-08-16T06:11:37.044Z,24.50
2018-08-16T06:12:42.006Z,24.50
2018-08-16T06:13:47.563Z,24.50
2018-08-16T06:14:52.514Z,24.50
2018-08-16T06:15:57.424Z,24.50
2018-08-16T06:17:02.431Z,24.50
2018-08-16T06:18:07.942Z,24.50
2018-08-16T06:19:12.895Z,24.50
2018-08-16T06:20:17.799Z,24.50
2018-08-16T06:21:22.831Z,24.50
2018-08-16T06:22:28.476Z,24.50
2018-08-16T06:23:33.354Z,24.50
2018-08-16T06:24:38.361Z,24.50
2018-08-16T06:25:43.938Z,24.50
2018-08-16T06:26:49.396Z,24.50
2018-08-16T06:27:54.568Z,24.50
2018-08-16T06:28:59.571Z,24.50
2018-08-16T06:30:04.670Z,24.50
2018-08-16T06:31:09.670Z,24.50
2018-08-16T06:32:14.592Z,24.50
2018-08-16T06:33:19.444Z,24.50
2018-08-16T06:34:24.404Z,24.50
2018-08-16T06:35:29.308Z,24.50
2018-08-16T06:36:34.939Z,24.50
2018-08-16T06:37:39.725Z,24.50
2018-08-16T06:38:44.760Z,24.50
2018-08-16T06:39:49.585Z,24.50
2018-08-16T06:40:54.270Z,24.50
2018-08-16T06:41:59.188Z,24.50
2018-08-16T06:43:04.866Z,24.50
2018-08-16T06:44:10.356Z,24.50
2018-08-16T06:45:15.379Z,24.50
2018-08-16T06:46:20.428Z,24.50
2018-08-16T06:47:25.289Z,24.50
2018-08-16T06:48:30.182Z,24.50
2018-08-16T06:49:35.639Z,24.50
2018-08-16T06:50:40.500Z,24.50
2018-08-16T06:51:45.347Z,24.50
2018-08-16T06:52:50.338Z,24.50
2018-08-16T06:53:55.332Z,24.50
2018-08-16T06:55:00.254Z,24.50
2018-08-16T06:56:05.734Z,24.50
2018-08-16T06:57:10.711Z,24.50
2018-08-16T06:58:15.655Z,24.50
2018-08-16T06:59:21.461Z,24.50
2018-08-16T07:00:26.451Z,24.50
2018-08-16T07:01:31.239Z,24.50
2018-08-16T07:02:36.285Z,24.50
2018-08-16T07:03:41.754Z,24.50
2018-08-16T07:04:46.722Z,24.50
2018-08-16T07:05:51.542Z,24.50
2018-08-16T07:06:56.466Z,24.50
2018-08-16T07:08:01.457Z,24.40
2018-08-16T07:09:06.391Z,24.50
2018-08-16T07:10:11.399Z,24.50
2018-08-16T07:11:16.342Z,24.50
2018-08-16T07:12:21.447Z,24.50
2018-08-16T07:13:26.401Z,24.50
2018-08-16T07:14:31.403Z,24.50
2018-08-16T07:15:37.089Z,24.50
2018-08-16T07:16:42.900Z,24.50
2018-08-16T07:17:47.995Z,24.50
2018-08-16T07:18:53.120Z,24.50
2018-08-16T07:19:58.017Z,24.40
2018-08-16T07:21:03.068Z,24.40
2018-08-16T07:22:08.727Z,24.40
2018-08-16T07:23:13.800Z,24.40
2018-08-16T07:24:18.893Z,24.40
2018-08-16T07:25:24.662Z,24.40
2018-08-16T07:26:30.388Z,24.40
2018-08-16T07:27:35.463Z,24.40
2018-08-16T07:28:41.142Z,24.40
2018-08-16T07:29:46.658Z,24.50
2018-08-16T07:30:51.526Z,24.50
2018-08-16T07:31:56.487Z,24.50
2018-08-16T07:33:01.651Z,24.50
2018-08-16T07:34:06.668Z,24.50
2018-08-16T07:35:11.812Z,24.50
2018-08-16T07:36:16.908Z,24.50
2018-08-16T07:37:21.914Z,24.50
2018-08-16T07:38:26.907Z,24.50
2018-08-16T07:39:31.785Z,24.50
2018-08-16T07:40:36.716Z,24.50
2018-08-16T07:41:42.694Z,24.50
2018-08-16T07:42:47.560Z,24.50
2018-08-16T07:43:52.533Z,24.50
2018-08-16T07:44:58.148Z,24.50
2018-08-16T07:46:03.318Z,24.50
2018-08-16T07:47:08.848Z,24.50
2018-08-16T07:48:14.576Z,24.50
2018-08-16T07:49:19.504Z,24.50
2018-08-16T07:50:24.341Z,24.50
2018-08-16T07:51:29.526Z,24.50
2018-08-16T07:52:34.274Z,24.50
2018-08-16T07:53:39.344Z,24.50
2018-08-16T07:54:44.370Z,24.50
2018-08-16T07:55:49.321Z,24.50
2018-08-16T07:56:54.180Z,24.50
2018-08-16T07:57:59.776Z,24.50
2018-08-16T07:59:04.767Z,24.50
2018-08-16T08:00:10.321Z,24.50
2018-08-16T08:01:15.736Z,24.50
2018-08-16T08:02:21.489Z,24.50
2018-08-16T08:03:27.026Z,24.50
2018-08-16T08:04:31.991Z,24.50
2018-08-16T08:05:37.532Z,24.50
2018-08-16T08:06:43.096Z,24.60
2018-08-16T08:07:48.796Z,24.60
2018-08-16T08:08:53.638Z,24.60
2018-08-16T08:09:58.477Z,24.60
2018-08-16T08:11:04.122Z,24.60
2018-08-16T08:12:08.911Z,24.50
2018-08-16T08:13:13.799Z,24.60
2018-08-16T08:14:19.040Z,24.60
2018-08-16T08:15:24.919Z,24.60
2018-08-16T08:16:29.961Z,24.60
2018-08-16T08:17:34.898Z,24.60
2018-08-16T08:18:39.748Z,24.70
2018-08-16T08:19:44.773Z,24.70
2018-08-16T08:20:49.822Z,24.70
2018-08-16T08:21:55.539Z,24.70
2018-08-16T08:23:00.455Z,24.70
2018-08-16T08:24:06.105Z,24.70
2018-08-16T08:25:11.740Z,24.70
2018-08-16T08:26:16.751Z,24.70
2018-08-16T08:27:21.698Z,24.70
2018-08-16T08:28:26.557Z,24.70
2018-08-16T08:29:31.486Z,24.70
2018-08-16T08:30:36.447Z,24.80
2018-08-16T08:31:41.454Z,24.80
2018-08-16T08:32:46.910Z,24.70
2018-08-16T08:33:51.851Z,24.70
2018-08-16T08:34:56.801Z,24.70
2018-08-16T08:36:01.641Z,24.70
2018-08-16T08:37:07.182Z,24.70
2018-08-16T08:38:12.118Z,24.70
2018-08-16T08:39:17.008Z,24.70
2018-08-16T08:40:21.752Z,24.70
2018-08-16T08:41:27.310Z,24.70
2018-08-16T08:42:32.328Z,24.70
2018-08-16T08:43:37.409Z,24.70
2018-08-16T08:44:42.758Z,24.70
2018-08-16T08:45:47.729Z,24.70
2018-08-16T08:46:52.631Z,24.70
2018-08-16T08:47:57.476Z,24.70
2018-08-16T08:49:02.341Z,24.70
2018-08-16T08:50:07.895Z,24.70
2018-08-16T08:51:12.847Z,24.70
2018-08-16T08:52:18.391Z,24.70
2018-08-16T08:53:23.992Z,24.70
2018-08-16T08:54:28.952Z,24.70
2018-08-16T08:55:34.632Z,24.70
2018-08-16T08:56:39.397Z,24.70
2018-08-16T08:57:44.338Z,24.70
2018-08-16T08:58:49.160Z,24.70
2018-08-16T08:59:54.142Z,24.70
2018-08-16T09:00:59.665Z,24.70
2018-08-16T09:02:04.448Z,24.70
2018-08-16T09:03:09.499Z,24.70
2018-08-16T09:04:14.403Z,24.70
2018-08-16T09:05:19.313Z,24.70
2018-08-16T09:06:24.111Z,24.70
2018-08-16T09:07:29.512Z,24.70
2018-08-16T09:08:34.377Z,24.70
2018-08-16T09:09:39.848Z,24.70
2018-08-16T09:10:44.665Z,24.70
2018-08-16T09:11:49.709Z,24.70
2018-08-16T09:12:55.196Z,24.70
2018-08-16T09:14:00.257Z,24.70
2018-08-16T09:15:05.917Z,24.70
2018-08-16T09:16:10.803Z,24.70
2018-08-16T09:17:15.750Z,24.70
2018-08-16T09:18:21.336Z,24.70
2018-08-16T09:19:26.210Z,24.70
2018-08-16T09:20:31.150Z,24.80
2018-08-16T09:21:35.959Z,24.80
2018-08-16T09:22:40.922Z,24.80
2018-08-16T09:23:45.768Z,24.80
2018-08-16T09:24:50.615Z,24.80
2018-08-16T09:25:55.459Z,24.80
2018-08-16T09:27:00.939Z,24.80
2018-08-16T09:28:06.497Z,24.80
2018-08-16T09:29:12.115Z,24.90
2018-08-16T09:30:17.679Z,24.90
2018-08-16T09:31:22.739Z,24.80
2018-08-16T09:32:27.584Z,24.80
2018-08-16T09:33:32.524Z,24.80
2018-08-16T09:34:37.493Z,24.80
2018-08-16T09:35:43.017Z,24.80
2018-08-16T09:36:48.065Z,24.80
2018-08-16T09:37:53.044Z,24.80
2018-08-16T09:38:58.223Z,24.90
2018-08-16T09:40:04.320Z,24.90
2018-08-16T09:41:09.254Z,24.90
2018-08-16T09:42:14.096Z,24.80
2018-08-16T09:43:19.657Z,24.80
2018-08-16T09:44:25.292Z,24.80
2018-08-16T09:45:30.904Z,24.80
2018-08-16T09:46:35.792Z,24.80
2018-08-16T09:47:40.700Z,24.80
2018-08-16T09:48:45.499Z,24.80
2018-08-16T09:49:50.585Z,24.80
2018-08-16T09:50:55.384Z,24.80
2018-08-16T09:52:00.347Z,24.80
2018-08-16T09:53:05.356Z,24.80
2018-08-16T09:54:10.219Z,24.80
2018-08-16T09:55:15.240Z,24.70
2018-08-16T09:56:20.115Z,24.70
2018-08-16T09:57:25.111Z,24.80
2018-08-16T09:58:29.982Z,24.80
2018-08-16T09:59:34.879Z,24.80
2018-08-16T10:00:39.858Z,24.80
2018-08-16T10:01:44.996Z,24.80
2018-08-16T10:02:50.502Z,24.80
2018-08-16T10:03:55.271Z,24.80
2018-08-16T10:05:00.101Z,24.90
2018-08-16T10:06:04.907Z,24.90
2018-08-16T10:07:09.740Z,24.90
2018-08-16T10:08:15.650Z,24.90
2018-08-16T10:09:20.422Z,24.90
2018-08-16T10:10:25.292Z,24.90
2018-08-16T10:11:30.174Z,24.90
2018-08-16T10:12:35.104Z,24.90
2018-08-16T10:13:40.039Z,24.90
2018-08-16T10:14:44.738Z,24.90
2018-08-16T10:15:50.417Z,24.90
2018-08-16T10:16:55.516Z,24.90
2018-08-16T10:18:00.442Z,24.90
2018-08-16T10:19:05.370Z,24.90
2018-08-16T10:20:10.195Z,24.90
2018-08-16T10:21:15.350Z,24.90
2018-08-16T10:22:20.402Z,24.90
2018-08-16T10:23:25.334Z,25.00
2018-08-16T10:24:30.857Z,25.00
2018-08-16T10:25:35.768Z,25.00
2018-08-16T10:26:40.763Z,25.00
2018-08-16T10:27:45.622Z,25.00
2018-08-16T10:28:50.591Z,25.00
2018-08-16T10:29:55.570Z,25.00
2018-08-16T10:31:00.579Z,25.00
2018-08-16T10:32:05.532Z,25.10
2018-08-16T10:33:12.315Z,25.10
2018-08-16T10:34:17.177Z,25.10
2018-08-16T10:35:22.036Z,25.10
2018-08-16T10:36:27.103Z,25.10
2018-08-16T10:37:32.591Z,25.10
2018-08-16T10:38:37.495Z,25.10
2018-08-16T10:39:42.434Z,25.10
2018-08-16T10:40:47.330Z,25.10
2018-08-16T10:41:52.202Z,25.10
2018-08-16T10:42:57.736Z,25.10
2018-08-16T10:44:02.510Z,25.10
2018-08-16T10:45:07.551Z,25.10
2018-08-16T10:46:12.576Z,25.10
2018-08-16T10:47:17.445Z,25.10
2018-08-16T10:48:22.257Z,25.10
2018-08-16T10:49:27.191Z,25.10
2018-08-16T10:50:33.239Z,25.10
2018-08-16T10:51:38.940Z,25.10
2018-08-16T10:52:43.710Z,25.10
2018-08-16T10:53:48.704Z,25.10
2018-08-16T10:54:53.739Z,25.10
2018-08-16T10:55:58.500Z,25.10
2018-08-16T10:57:03.277Z,25.10
2018-08-16T10:58:08.263Z,25.10
2018-08-16T10:59:13.291Z,25.10
2018-08-16T11:00:18.877Z,25.10
2018-08-16T11:01:24.066Z,25.10
2018-08-16T11:02:29.547Z,25.10
2018-08-16T11:03:34.595Z,25.10
2018-08-16T11:04:39.583Z,25.10
2018-08-16T11:05:44.575Z,25.10
2018-08-16T11:06:49.492Z,25.10
2018-08-16T11:07:54.478Z,25.10
2018-08-16T11:08:59.336Z,25.10
2018-08-16T11:10:04.319Z,25.10
2018-08-16T11:11:09.112Z,25.10
2018-08-16T11:12:14.702Z,25.10
2018-08-16T11:13:19.548Z,25.10
2018-08-16T11:14:25.086Z,25.10
2018-08-16T11:15:30.712Z,25.10
2018-08-16T11:16:36.294Z,25.10
2018-08-16T11:17:41.936Z,25.20
2018-08-16T11:18:46.949Z,25.20
2018-08-16T11:19:51.811Z,25.20
2018-08-16T11:20:56.717Z,25.10
2018-08-16T11:22:01.656Z,25.20
2018-08-16T11:23:06.606Z,25.20
2018-08-16T11:24:11.714Z,25.20
2018-08-16T11:25:16.583Z,25.20
2018-08-16T11:26:21.520Z,25.20
2018-08-16T11:27:26.393Z,25.20
2018-08-16T11:28:31.371Z,25.20
2018-08-16T11:29:36.933Z,25.20
2018-08-16T11:30:42.418Z,25.20
2018-08-16T11:31:47.311Z,25.20
2018-08-16T11:32:53.005Z,25.20
2018-08-16T11:33:58.574Z,25.20
2018-08-16T11:35:04.149Z,25.20
2018-08-16T11:36:09.041Z,25.20
2018-08-16T11:37:14.086Z,25.20
2018-08-16T11:38:19.727Z,25.20
2018-08-16T11:39:24.680Z,25.20
2018-08-16T11:40:29.633Z,25.20
2018-08-16T11:41:34.741Z,25.20
2018-08-16T11:42:39.711Z,25.20
2018-08-16T11:43:44.787Z,25.20
2018-08-16T11:44:49.548Z,25.20
2018-08-16T11:45:54.428Z,25.20
2018-08-16T11:46:59.426Z,25.20
2018-08-16T11:48:04.496Z,25.20
2018-08-16T11:49:09.380Z,25.20
2018-08-16T11:50:14.209Z,25.30
2018-08-16T11:51:19.069Z,25.30
2018-08-16T11:52:23.964Z,25.30
2018-08-16T11:53:29.641Z,25.30
2018-08-16T11:54:34.773Z,25.30
2018-08-16T11:55:39.888Z,25.30
2018-08-16T11:56:44.893Z,25.30
2018-08-16T11:57:49.771Z,25.30
2018-08-16T11:58:54.626Z,25.30
2018-08-16T11:59:59.558Z,25.30
2018-08-16T12:01:04.518Z,25.30
2018-08-16T12:02:09.446Z,25.30
2018-08-16T12:03:15.119Z,25.30
2018-08-16T12:04:20.080Z,25.30
2018-08-16T12:05:25.010Z,25.30
2018-08-16T12:06:29.844Z,25.30
2018-08-16T12:07:34.849Z,25.30
2018-08-16T12:08:40.451Z,25.30
2018-08-16T12:09:45.409Z,25.30
2018-08-16T12:10:50.359Z,25.30
2018-08-16T12:11:55.256Z,25.30
2018-08-16T12:13:00.236Z,25.30
2018-08-16T12:14:05.232Z,25.30
2018-08-16T12:15:10.152Z,25.30
2018-08-16T12:16:15.688Z,25.30
2018-08-16T12:17:21.246Z,25.30
2018-08-16T12:18:27.281Z,25.30
2018-08-16T12:19:32.455Z,25.30
2018-08-16T12:20:37.491Z,25.30
2018-08-16T12:21:42.434Z,25.30
2018-08-16T12:22:47.335Z,25.30
2018-08-16T12:23:52.062Z,25.30
2018-08-16T12:24:56.955Z,25.30
2018-08-16T12:26:01.855Z,25.30
2018-08-16T12:27:06.790Z,25.30
2018-08-16T12:28:11.697Z,25.30
2018-08-16T12:29:17.271Z,25.30
2018-08-16T12:30:22.128Z,25.30
2018-08-16T12:31:27.094Z,25.30
2018-08-16T12:32:31.866Z,25.30
2018-08-16T12:33:38.033Z,25.30
2018-08-16T12:34:43.146Z,25.40
2018-08-16T12:35:48.763Z,25.40
2018-08-16T12:36:53.751Z,25.30
2018-08-16T12:37:58.588Z,25.40
2018-08-16T12:39:03.391Z,25.40
2018-08-16T12:40:08.910Z,25.40
2018-08-16T12:41:14.030Z,25.40
2018-08-16T12:42:19.173Z,25.40
2018-08-16T12:43:24.395Z,25.40
2018-08-16T12:44:29.593Z,25.40
2018-08-16T12:45:34.858Z,25.40
2018-08-16T12:46:40.702Z,25.40
2018-08-16T12:47:45.597Z,25.40
2018-08-16T12:48:50.471Z,25.40
2018-08-16T12:49:55.311Z,25.40
2018-08-16T12:51:00.236Z,25.40
2018-08-16T12:52:05.236Z,25.40
2018-08-16T12:53:10.133Z,25.40
2018-08-16T12:54:15.181Z,25.40
2018-08-16T12:55:20.026Z,25.40
2018-08-16T12:56:25.633Z,25.40
2018-08-16T12:57:30.481Z,25.40
2018-08-16T12:58:35.467Z,25.50
2018-08-16T12:59:40.381Z,25.50
2018-08-16T13:00:45.378Z,25.50
2018-08-16T13:01:50.536Z,25.50
2018-08-16T13:02:55.590Z,25.50
2018-08-16T13:04:01.231Z,25.50
2018-08-16T13:05:06.395Z,25.50
2018-08-16T13:06:11.778Z,25.50
2018-08-16T13:07:17.369Z,25.50
2018-08-16T13:08:23.012Z,25.50
2018-08-16T13:09:28.009Z,25.50
2018-08-16T13:10:33.034Z,25.50
2018-08-16T13:11:38.441Z,25.50
2018-08-16T13:12:43.564Z,25.50
2018-08-16T13:13:48.470Z,25.50
2018-08-16T13:14:53.367Z,25.50
2018-08-16T13:15:58.309Z,25.50
2018-08-16T13:17:03.801Z,25.50
2018-08-16T13:18:08.716Z,25.50
2018-08-16T13:19:14.624Z,25.50
2018-08-16T13:20:20.243Z,25.50
2018-08-16T13:21:25.249Z,25.50
2018-08-16T13:22:31.627Z,25.50
2018-08-16T13:23:37.408Z,25.60
2018-08-16T13:24:42.473Z,25.60
2018-08-16T13:25:47.404Z,25.60
2018-08-16T13:26:52.329Z,25.60
2018-08-16T13:27:57.920Z,25.60
2018-08-16T13:29:02.910Z,25.60
2018-08-16T13:30:07.972Z,25.60
2018-08-16T13:31:13.614Z,25.60
2018-08-16T13:32:18.598Z,25.50
2018-08-16T13:33:24.159Z,25.60
2018-08-16T13:34:29.755Z,25.50
2018-08-16T13:35:35.352Z,25.50
2018-08-16T13:36:40.259Z,25.50
2018-08-16T13:37:45.745Z,25.50
2018-08-16T13:38:50.689Z,25.50
2018-08-16T13:39:55.632Z,25.50
2018-08-16T13:41:01.203Z,25.50
2018-08-16T13:42:06.205Z,25.50
2018-08-16T13:43:10.983Z,25.50
2018-08-16T13:44:16.524Z,25.50
2018-08-16T13:45:21.285Z,25.50
2018-08-16T13:46:26.250Z,25.50
2018-08-16T13:47:31.219Z,25.50
2018-08-16T13:48:36.461Z,25.50
2018-08-16T13:49:42.028Z,25.50
2018-08-16T13:50:47.632Z,25.50
2018-08-16T13:51:52.717Z,25.50
2018-08-16T13:52:57.566Z,25.50
2018-08-16T13:54:03.119Z,25.40
2018-08-16T13:55:08.203Z,25.40
2018-08-16T13:56:13.811Z,25.40
2018-08-16T13:57:18.583Z,25.50
2018-08-16T13:58:23.328Z,25.50
2018-08-16T13:59:28.925Z,25.50